sensor_id;sensor_type;location;lat;lon;timestamp;temperature;humidity
37281;DHT22;23169;41.804;12.596;2023-05-16T00:00:07;13.60;99.90
37281;DHT22;23169;41.804;12.596;2023-05-16T00:02:36;13.60;99.90
37281;DHT22;23169;41.804;12.596;2023-05-16T00:05:07;13.60;99.90
37281;DHT22;23169;41.804;12.596;2023-05-16T00:07:42;13.60;99.90
37281;DHT22;23169;41.804;12.596;2023-05-16T00:10:12;13.50;99.90
37281;DHT22;23169;41.804;12.596;2023-05-16T00:12:41;13.60;99.90
37281;DHT22;23169;41.804;12.596;2023-05-16T00:15:11;13.50;99.90
37281;DHT22;23169;41.804;12.596;2023-05-16T00:17:43;13.50;99.90
37281;DHT22;23169;41.804;12.596;2023-05-16T00:20:14;13.50;99.90
37281;DHT22;23169;41.804;12.596;2023-05-16T00:22:44;13.50;99.90
37281;DHT22;23169;41.804;12.596;2023-05-16T00:25:14;13.50;99.90
37281;DHT22;23169;41.804;12.596;2023-05-16T00:27:44;13.40;99.90
37281;DHT22;23169;41.804;12.596;2023-05-16T00:30:13;13.40;99.90
37281;DHT22;23169;41.804;12.596;2023-05-16T00:32:43;13.40;99.90
37281;DHT22;23169;41.804;12.596;2023-05-16T00:35:12;13.40;99.90
37281;DHT22;23169;41.804;12.596;2023-05-16T00:37:41;13.40;99.90
37281;DHT22;23169;41.804;12.596;2023-05-16T00:40:10;13.40;99.90
37281;DHT22;23169;41.804;12.596;2023-05-16T00:42:39;13.40;99.90
37281;DHT22;23169;41.804;12.596;2023-05-16T00:45:10;13.40;99.90
37281;DHT22;23169;41.804;12.596;2023-05-16T00:47:40;13.40;99.90
37281;DHT22;23169;41.804;12.596;2023-05-16T00:50:09;13.40;99.90
37281;DHT22;23169;41.804;12.596;2023-05-16T00:52:39;13.40;99.90
37281;DHT22;23169;41.804;12.596;2023-05-16T00:55:08;13.40;99.90
37281;DHT22;23169;41.804;12.596;2023-05-16T00:57:41;13.40;99.90
37281;DHT22;23169;41.804;12.596;2023-05-16T01:00:10;13.40;99.90
37281;DHT22;23169;41.804;12.596;2023-05-16T01:02:41;13.40;99.90
37281;DHT22;23169;41.804;12.596;2023-05-16T01:05:10;13.40;99.90
37281;DHT22;23169;41.804;12.596;2023-05-16T01:07:40;13.30;99.90
37281;DHT22;23169;41.804;12.596;2023-05-16T01:10:10;13.30;99.90
37281;DHT22;23169;41.804;12.596;2023-05-16T01:13:08;13.30;99.90
37281;DHT22;23169;41.804;12.596;2023-05-16T01:15:47;13.30;99.90
37281;DHT22;23169;41.804;12.596;2023-05-16T01:18:36;13.30;99.90
37281;DHT22;23169;41.804;12.596;2023-05-16T01:21:17;13.30;99.90
37281;DHT22;23169;41.804;12.596;2023-05-16T01:24:11;13.30;99.90
37281;DHT22;23169;41.804;12.596;2023-05-16T01:26:41;13.30;99.90
37281;DHT22;23169;41.804;12.596;2023-05-16T01:29:10;13.30;99.90
37281;DHT22;23169;41.804;12.596;2023-05-16T01:31:39;13.30;99.90
37281;DHT22;23169;41.804;12.596;2023-05-16T01:34:08;13.20;99.90
37281;DHT22;23169;41.804;12.596;2023-05-16T01:36:52;13.20;99.90
37281;DHT22;23169;41.804;12.596;2023-05-16T01:39:35;13.20;99.90
37281;DHT22;23169;41.804;12.596;2023-05-16T01:42:08;13.20;99.90
37281;DHT22;23169;41.804;12.596;2023-05-16T01:47:26;13.20;99.90
37281;DHT22;23169;41.804;12.596;2023-05-16T01:50:14;13.20;99.90
37281;DHT22;23169;41.804;12.596;2023-05-16T01:52:55;13.20;99.90
37281;DHT22;23169;41.804;12.596;2023-05-16T01:55:45;13.10;99.90
37281;DHT22;23169;41.804;12.596;2023-05-16T01:58:15;13.10;99.90
37281;DHT22;23169;41.804;12.596;2023-05-16T02:00:44;13.10;99.90
37281;DHT22;23169;41.804;12.596;2023-05-16T02:03:13;13.10;99.90
37281;DHT22;23169;41.804;12.596;2023-05-16T02:05:42;13.10;99.90
37281;DHT22;23169;41.804;12.596;2023-05-16T02:08:12;13.10;99.90
37281;DHT22;23169;41.804;12.596;2023-05-16T02:10:40;13.10;99.90
37281;DHT22;23169;41.804;12.596;2023-05-16T02:13:09;13.10;99.90
37281;DHT22;23169;41.804;12.596;2023-05-16T02:15:38;13.10;99.90
37281;DHT22;23169;41.804;12.596;2023-05-16T02:18:07;13.10;99.90
37281;DHT22;23169;41.804;12.596;2023-05-16T02:20:37;13.10;99.90
37281;DHT22;23169;41.804;12.596;2023-05-16T02:23:05;13.10;99.90
37281;DHT22;23169;41.804;12.596;2023-05-16T02:25:35;13.10;99.90
37281;DHT22;23169;41.804;12.596;2023-05-16T02:28:03;13.10;99.90
37281;DHT22;23169;41.804;12.596;2023-05-16T02:30:32;13.10;99.90
37281;DHT22;23169;41.804;12.596;2023-05-16T02:33:01;13.20;99.90
37281;DHT22;23169;41.804;12.596;2023-05-16T02:35:31;13.10;99.90
37281;DHT22;23169;41.804;12.596;2023-05-16T02:37:59;13.20;99.90
37281;DHT22;23169;41.804;12.596;2023-05-16T02:40:28;13.20;99.90
37281;DHT22;23169;41.804;12.596;2023-05-16T02:42:57;13.20;99.90
37281;DHT22;23169;41.804;12.596;2023-05-16T02:45:27;13.10;99.90
37281;DHT22;23169;41.804;12.596;2023-05-16T02:47:56;13.20;99.90
37281;DHT22;23169;41.804;12.596;2023-05-16T02:50:24;13.20;99.90
37281;DHT22;23169;41.804;12.596;2023-05-16T02:52:53;13.20;99.90
37281;DHT22;23169;41.804;12.596;2023-05-16T02:55:22;13.10;99.90
37281;DHT22;23169;41.804;12.596;2023-05-16T02:57:51;13.20;99.90
37281;DHT22;23169;41.804;12.596;2023-05-16T03:00:20;13.10;99.90
37281;DHT22;23169;41.804;12.596;2023-05-16T03:02:49;13.10;99.90
37281;DHT22;23169;41.804;12.596;2023-05-16T03:05:17;13.20;99.90
37281;DHT22;23169;41.804;12.596;2023-05-16T03:07:46;13.10;99.90
37281;DHT22;23169;41.804;12.596;2023-05-16T03:10:15;13.10;99.90
37281;DHT22;23169;41.804;12.596;2023-05-16T03:12:44;12.80;99.90
37281;DHT22;23169;41.804;12.596;2023-05-16T03:15:13;13.10;99.90
37281;DHT22;23169;41.804;12.596;2023-05-16T03:17:41;13.10;99.90
37281;DHT22;23169;41.804;12.596;2023-05-16T03:20:10;13.10;99.90
37281;DHT22;23169;41.804;12.596;2023-05-16T03:22:39;13.10;99.90
37281;DHT22;23169;41.804;12.596;2023-05-16T03:25:08;13.10;99.90
37281;DHT22;23169;41.804;12.596;2023-05-16T03:27:37;13.10;99.90
37281;DHT22;23169;41.804;12.596;2023-05-16T03:30:06;13.10;99.90
37281;DHT22;23169;41.804;12.596;2023-05-16T03:32:37;13.10;99.90
37281;DHT22;23169;41.804;12.596;2023-05-16T03:35:06;13.10;99.90
37281;DHT22;23169;41.804;12.596;2023-05-16T03:40:05;13.10;99.90
37281;DHT22;23169;41.804;12.596;2023-05-16T03:42:34;13.10;99.90
37281;DHT22;23169;41.804;12.596;2023-05-16T03:45:06;13.10;99.90
37281;DHT22;23169;41.804;12.596;2023-05-16T03:47:38;13.70;99.90
37281;DHT22;23169;41.804;12.596;2023-05-16T03:50:06;13.20;99.90
37281;DHT22;23169;41.804;12.596;2023-05-16T03:52:36;13.20;99.90
37281;DHT22;23169;41.804;12.596;2023-05-16T03:55:05;13.10;99.90
37281;DHT22;23169;41.804;12.596;2023-05-16T03:57:35;13.10;99.90
37281;DHT22;23169;41.804;12.596;2023-05-16T04:00:05;13.10;99.90
37281;DHT22;23169;41.804;12.596;2023-05-16T04:02:35;13.20;99.90
37281;DHT22;23169;41.804;12.596;2023-05-16T04:05:04;13.10;99.90
37281;DHT22;23169;41.804;12.596;2023-05-16T04:07:35;13.20;99.90
37281;DHT22;23169;41.804;12.596;2023-05-16T04:10:04;13.40;99.90
37281;DHT22;23169;41.804;12.596;2023-05-16T04:12:33;13.20;99.90
37281;DHT22;23169;41.804;12.596;2023-05-16T04:15:06;13.20;99.90
37281;DHT22;23169;41.804;12.596;2023-05-16T04:17:35;13.20;99.90
37281;DHT22;23169;41.804;12.596;2023-05-16T04:20:04;13.10;99.90
37281;DHT22;23169;41.804;12.596;2023-05-16T04:22:35;13.10;99.90
37281;DHT22;23169;41.804;12.596;2023-05-16T04:25:05;13.10;99.90
37281;DHT22;23169;41.804;12.596;2023-05-16T04:27:35;13.10;99.90
37281;DHT22;23169;41.804;12.596;2023-05-16T04:30:05;13.10;99.90
37281;DHT22;23169;41.804;12.596;2023-05-16T04:32:34;13.10;99.90
37281;DHT22;23169;41.804;12.596;2023-05-16T04:35:04;13.10;99.90
37281;DHT22;23169;41.804;12.596;2023-05-16T04:37:34;13.20;99.90
37281;DHT22;23169;41.804;12.596;2023-05-16T04:40:04;13.20;99.90
37281;DHT22;23169;41.804;12.596;2023-05-16T04:42:35;13.10;99.90
37281;DHT22;23169;41.804;12.596;2023-05-16T04:45:07;13.20;99.90
37281;DHT22;23169;41.804;12.596;2023-05-16T04:50:08;13.20;99.90
37281;DHT22;23169;41.804;12.596;2023-05-16T04:55:07;13.10;99.90
37281;DHT22;23169;41.804;12.596;2023-05-16T04:57:36;13.20;99.90
37281;DHT22;23169;41.804;12.596;2023-05-16T05:00:06;13.20;99.90
37281;DHT22;23169;41.804;12.596;2023-05-16T05:02:44;13.20;99.90
37281;DHT22;23169;41.804;12.596;2023-05-16T05:05:13;13.20;99.90
37281;DHT22;23169;41.804;12.596;2023-05-16T05:07:42;13.30;99.90
37281;DHT22;23169;41.804;12.596;2023-05-16T05:10:10;13.30;99.90
37281;DHT22;23169;41.804;12.596;2023-05-16T05:12:39;12.90;99.90
37281;DHT22;23169;41.804;12.596;2023-05-16T05:15:08;13.30;99.90
37281;DHT22;23169;41.804;12.596;2023-05-16T05:17:37;13.30;99.90
37281;DHT22;23169;41.804;12.596;2023-05-16T05:20:06;13.40;99.90
37281;DHT22;23169;41.804;12.596;2023-05-16T05:22:35;13.40;99.90
37281;DHT22;23169;41.804;12.596;2023-05-16T05:25:05;13.50;99.90
37281;DHT22;23169;41.804;12.596;2023-05-16T05:27:34;13.50;99.90
37281;DHT22;23169;41.804;12.596;2023-05-16T05:30:03;13.60;99.90
37281;DHT22;23169;41.804;12.596;2023-05-16T05:32:34;13.60;99.90
37281;DHT22;23169;41.804;12.596;2023-05-16T05:35:03;13.60;99.90
37281;DHT22;23169;41.804;12.596;2023-05-16T05:37:32;13.70;99.90
37281;DHT22;23169;41.804;12.596;2023-05-16T05:40:01;13.70;99.90
37281;DHT22;23169;41.804;12.596;2023-05-16T05:42:30;13.80;99.90
37281;DHT22;23169;41.804;12.596;2023-05-16T05:44:59;13.80;99.90
37281;DHT22;23169;41.804;12.596;2023-05-16T05:47:28;13.90;99.90
37281;DHT22;23169;41.804;12.596;2023-05-16T05:49:58;13.90;99.90
37281;DHT22;23169;41.804;12.596;2023-05-16T05:52:27;14.00;99.90
37281;DHT22;23169;41.804;12.596;2023-05-16T05:54:55;14.00;99.90
37281;DHT22;23169;41.804;12.596;2023-05-16T05:57:26;16.00;99.90
37281;DHT22;23169;41.804;12.596;2023-05-16T05:59:56;14.10;99.90
37281;DHT22;23169;41.804;12.596;2023-05-16T06:02:25;14.20;99.90
37281;DHT22;23169;41.804;12.596;2023-05-16T06:04:54;14.20;99.90
37281;DHT22;23169;41.804;12.596;2023-05-16T06:07:23;14.20;99.90
37281;DHT22;23169;41.804;12.596;2023-05-16T06:12:21;14.30;99.90
37281;DHT22;23169;41.804;12.596;2023-05-16T06:14:49;14.40;99.90
37281;DHT22;23169;41.804;12.596;2023-05-16T06:17:18;14.50;99.90
37281;DHT22;23169;41.804;12.596;2023-05-16T06:19:47;14.50;99.90
37281;DHT22;23169;41.804;12.596;2023-05-16T06:22:15;14.60;99.90
37281;DHT22;23169;41.804;12.596;2023-05-16T06:24:45;14.60;99.90
37281;DHT22;23169;41.804;12.596;2023-05-16T06:27:13;14.70;99.90
37281;DHT22;23169;41.804;12.596;2023-05-16T06:29:42;14.70;99.90
37281;DHT22;23169;41.804;12.596;2023-05-16T06:32:10;14.80;99.90
37281;DHT22;23169;41.804;12.596;2023-05-16T06:34:39;14.90;99.90
37281;DHT22;23169;41.804;12.596;2023-05-16T06:37:08;14.80;99.90
37281;DHT22;23169;41.804;12.596;2023-05-16T06:39:38;14.80;99.90
37281;DHT22;23169;41.804;12.596;2023-05-16T06:42:06;14.90;99.90
37281;DHT22;23169;41.804;12.596;2023-05-16T06:44:37;14.90;99.90
37281;DHT22;23169;41.804;12.596;2023-05-16T06:47:06;15.00;99.90
37281;DHT22;23169;41.804;12.596;2023-05-16T06:49:35;15.10;99.90
37281;DHT22;23169;41.804;12.596;2023-05-16T06:52:06;15.10;99.90
37281;DHT22;23169;41.804;12.596;2023-05-16T06:54:35;15.20;99.90
37281;DHT22;23169;41.804;12.596;2023-05-16T06:57:04;15.20;99.00
37281;DHT22;23169;41.804;12.596;2023-05-16T06:59:33;15.30;95.00
37281;DHT22;23169;41.804;12.596;2023-05-16T07:02:06;15.30;94.20
37281;DHT22;23169;41.804;12.596;2023-05-16T07:04:36;15.30;93.10
37281;DHT22;23169;41.804;12.596;2023-05-16T07:07:05;15.30;93.80
37281;DHT22;23169;41.804;12.596;2023-05-16T07:09:35;15.30;94.30
37281;DHT22;23169;41.804;12.596;2023-05-16T07:12:04;15.30;93.60
37281;DHT22;23169;41.804;12.596;2023-05-16T07:14:34;15.20;93.90
37281;DHT22;23169;41.804;12.596;2023-05-16T07:17:02;15.30;94.00
37281;DHT22;23169;41.804;12.596;2023-05-16T07:19:32;15.40;92.60
37281;DHT22;23169;41.804;12.596;2023-05-16T07:22:01;15.30;88.60
37281;DHT22;23169;41.804;12.596;2023-05-16T07:24:31;15.30;90.10
37281;DHT22;23169;41.804;12.596;2023-05-16T07:26:59;15.10;90.00
37281;DHT22;23169;41.804;12.596;2023-05-16T07:29:28;15.00;92.10
37281;DHT22;23169;41.804;12.596;2023-05-16T07:31:59;14.90;92.80
37281;DHT22;23169;41.804;12.596;2023-05-16T07:34:28;14.90;94.90
37281;DHT22;23169;41.804;12.596;2023-05-16T07:36:57;14.90;94.40
37281;DHT22;23169;41.804;12.596;2023-05-16T07:39:25;15.00;94.50
37281;DHT22;23169;41.804;12.596;2023-05-16T07:41:54;15.10;93.30
37281;DHT22;23169;41.804;12.596;2023-05-16T07:44:23;15.20;90.90
37281;DHT22;23169;41.804;12.596;2023-05-16T07:46:52;15.20;91.30
37281;DHT22;23169;41.804;12.596;2023-05-16T07:49:21;15.20;92.60
37281;DHT22;23169;41.804;12.596;2023-05-16T07:51:49;15.20;92.90
37281;DHT22;23169;41.804;12.596;2023-05-16T07:54:19;15.20;92.20
37281;DHT22;23169;41.804;12.596;2023-05-16T07:56:47;15.30;91.30
37281;DHT22;23169;41.804;12.596;2023-05-16T07:59:16;15.40;90.60
37281;DHT22;23169;41.804;12.596;2023-05-16T08:01:45;15.40;88.70
37281;DHT22;23169;41.804;12.596;2023-05-16T08:04:13;15.50;89.70
37281;DHT22;23169;41.804;12.596;2023-05-16T08:06:42;15.60;89.80
37281;DHT22;23169;41.804;12.596;2023-05-16T08:09:10;15.80;87.40
37281;DHT22;23169;41.804;12.596;2023-05-16T08:11:40;15.90;88.90
37281;DHT22;23169;41.804;12.596;2023-05-16T08:14:12;16.00;88.60
37281;DHT22;23169;41.804;12.596;2023-05-16T08:16:41;16.00;81.60
37281;DHT22;23169;41.804;12.596;2023-05-16T08:19:09;16.00;83.30
37281;DHT22;23169;41.804;12.596;2023-05-16T08:21:38;16.00;85.50
37281;DHT22;23169;41.804;12.596;2023-05-16T08:24:08;16.00;85.00
37281;DHT22;23169;41.804;12.596;2023-05-16T08:26:38;15.90;86.60
37281;DHT22;23169;41.804;12.596;2023-05-16T08:29:07;15.90;87.00
37281;DHT22;23169;41.804;12.596;2023-05-16T08:31:38;15.90;87.20
37281;DHT22;23169;41.804;12.596;2023-05-16T08:34:06;15.90;86.50
37281;DHT22;23169;41.804;12.596;2023-05-16T08:36:37;15.90;87.80
37281;DHT22;23169;41.804;12.596;2023-05-16T08:39:06;15.90;89.20
37281;DHT22;23169;41.804;12.596;2023-05-16T08:41:36;15.90;89.80
37281;DHT22;23169;41.804;12.596;2023-05-16T08:44:05;15.90;89.40
37281;DHT22;23169;41.804;12.596;2023-05-16T08:46:35;15.90;91.00
37281;DHT22;23169;41.804;12.596;2023-05-16T08:49:04;15.90;92.10
37281;DHT22;23169;41.804;12.596;2023-05-16T08:51:36;16.70;92.60
37281;DHT22;23169;41.804;12.596;2023-05-16T08:54:10;16.10;93.20
37281;DHT22;23169;41.804;12.596;2023-05-16T08:56:41;16.30;93.00
37281;DHT22;23169;41.804;12.596;2023-05-16T08:59:11;16.40;91.90
37281;DHT22;23169;41.804;12.596;2023-05-16T09:01:40;16.60;90.00
37281;DHT22;23169;41.804;12.596;2023-05-16T09:04:08;16.80;83.50
37281;DHT22;23169;41.804;12.596;2023-05-16T09:06:37;16.90;75.60
37281;DHT22;23169;41.804;12.596;2023-05-16T09:09:06;17.00;74.80
37281;DHT22;23169;41.804;12.596;2023-05-16T09:11:41;18.10;63.70
37281;DHT22;23169;41.804;12.596;2023-05-16T09:14:09;17.10;72.00
37281;DHT22;23169;41.804;12.596;2023-05-16T09:16:38;17.20;69.80
37281;DHT22;23169;41.804;12.596;2023-05-16T09:19:12;17.20;67.70
37281;DHT22;23169;41.804;12.596;2023-05-16T09:21:41;17.30;70.60
37281;DHT22;23169;41.804;12.596;2023-05-16T09:24:10;17.30;69.00
37281;DHT22;23169;41.804;12.596;2023-05-16T09:26:38;17.30;68.60
37281;DHT22;23169;41.804;12.596;2023-05-16T09:29:11;17.40;70.60
37281;DHT22;23169;41.804;12.596;2023-05-16T09:31:40;17.50;69.30
37281;DHT22;23169;41.804;12.596;2023-05-16T09:34:09;17.60;68.10
37281;DHT22;23169;41.804;12.596;2023-05-16T09:36:40;17.70;65.90
37281;DHT22;23169;41.804;12.596;2023-05-16T09:39:08;17.70;65.60
37281;DHT22;23169;41.804;12.596;2023-05-16T09:41:38;17.70;64.90
37281;DHT22;23169;41.804;12.596;2023-05-16T09:44:06;17.80;64.50
37281;DHT22;23169;41.804;12.596;2023-05-16T09:46:37;14.90;84.40
37281;DHT22;23169;41.804;12.596;2023-05-16T09:51:35;18.00;37.30
37281;DHT22;23169;41.804;12.596;2023-05-16T09:54:06;18.00;48.90
37281;DHT22;23169;41.804;12.596;2023-05-16T09:56:49;18.10;50.20
37281;DHT22;23169;41.804;12.596;2023-05-16T09:59:18;18.10;49.70
37281;DHT22;23169;41.804;12.596;2023-05-16T10:01:48;18.10;50.90
37281;DHT22;23169;41.804;12.596;2023-05-16T10:04:18;18.30;50.60
37281;DHT22;23169;41.804;12.596;2023-05-16T10:06:49;18.50;51.40
37281;DHT22;23169;41.804;12.596;2023-05-16T10:09:20;18.80;47.10
37281;DHT22;23169;41.804;12.596;2023-05-16T10:11:51;19.00;40.50
37281;DHT22;23169;41.804;12.596;2023-05-16T10:14:21;19.10;34.20
37281;DHT22;23169;41.804;12.596;2023-05-16T10:16:50;19.40;36.10
37281;DHT22;23169;41.804;12.596;2023-05-16T10:19:20;19.70;31.10
37281;DHT22;23169;41.804;12.596;2023-05-16T10:21:53;19.90;28.90
37281;DHT22;23169;41.804;12.596;2023-05-16T10:24:35;20.00;24.00
37281;DHT22;23169;41.804;12.596;2023-05-16T10:27:04;19.90;21.40
37281;DHT22;23169;41.804;12.596;2023-05-16T10:29:32;19.70;18.80
37281;DHT22;23169;41.804;12.596;2023-05-16T10:32:02;19.40;17.30
37281;DHT22;23169;41.804;12.596;2023-05-16T10:34:31;19.30;16.50
37281;DHT22;23169;41.804;12.596;2023-05-16T10:37:01;19.00;15.30
37281;DHT22;23169;41.804;12.596;2023-05-16T10:39:31;18.70;15.60
37281;DHT22;23169;41.804;12.596;2023-05-16T10:42:00;18.50;16.40
37281;DHT22;23169;41.804;12.596;2023-05-16T10:44:31;17.90;21.80
37281;DHT22;23169;41.804;12.596;2023-05-16T10:47:02;17.40;27.60
37281;DHT22;23169;41.804;12.596;2023-05-16T10:49:32;17.10;28.90
37281;DHT22;23169;41.804;12.596;2023-05-16T10:52:11;17.00;30.70
37281;DHT22;23169;41.804;12.596;2023-05-16T10:54:42;17.00;35.40
37281;DHT22;23169;41.804;12.596;2023-05-16T10:57:15;17.20;36.30
37281;DHT22;23169;41.804;12.596;2023-05-16T10:59:47;17.50;35.50
37281;DHT22;23169;41.804;12.596;2023-05-16T11:02:30;17.90;30.30
37281;DHT22;23169;41.804;12.596;2023-05-16T11:05:02;18.40;24.70
37281;DHT22;23169;41.804;12.596;2023-05-16T11:07:34;19.00;25.10
37281;DHT22;23169;41.804;12.596;2023-05-16T11:10:14;19.70;21.90
37281;DHT22;23169;41.804;12.596;2023-05-16T11:12:50;20.40;16.70
37281;DHT22;23169;41.804;12.596;2023-05-16T11:15:24;21.00;10.60
37281;DHT22;23169;41.804;12.596;2023-05-16T11:18:12;21.40;10.00
37281;DHT22;23169;41.804;12.596;2023-05-16T11:20:42;21.70;3.30
37281;DHT22;23169;41.804;12.596;2023-05-16T11:23:21;21.60;1.00
37281;DHT22;23169;41.804;12.596;2023-05-16T11:25:55;21.40;1.00
37281;DHT22;23169;41.804;12.596;2023-05-16T11:28:25;21.00;1.00
37281;DHT22;23169;41.804;12.596;2023-05-16T11:30:57;20.60;1.00
37281;DHT22;23169;41.804;12.596;2023-05-16T11:33:30;20.40;1.00
37281;DHT22;23169;41.804;12.596;2023-05-16T11:36:04;20.30;1.00
37281;DHT22;23169;41.804;12.596;2023-05-16T11:38:34;20.30;1.00
37281;DHT22;23169;41.804;12.596;2023-05-16T11:41:04;20.20;1.00
37281;DHT22;23169;41.804;12.596;2023-05-16T11:43:40;20.00;1.00
37281;DHT22;23169;41.804;12.596;2023-05-16T11:46:15;20.20;1.00
37281;DHT22;23169;41.804;12.596;2023-05-16T11:51:17;21.30;1.00
37281;DHT22;23169;41.804;12.596;2023-05-16T11:53:48;21.50;1.00
37281;DHT22;23169;41.804;12.596;2023-05-16T11:56:19;21.30;1.00
37281;DHT22;23169;41.804;12.596;2023-05-16T11:58:49;21.20;1.00
37281;DHT22;23169;41.804;12.596;2023-05-16T12:01:18;21.00;1.00
37281;DHT22;23169;41.804;12.596;2023-05-16T12:03:56;20.60;1.00
37281;DHT22;23169;41.804;12.596;2023-05-16T12:06:25;20.40;1.00
37281;DHT22;23169;41.804;12.596;2023-05-16T12:08:53;20.50;1.00
37281;DHT22;23169;41.804;12.596;2023-05-16T12:11:23;20.50;1.00
37281;DHT22;23169;41.804;12.596;2023-05-16T12:13:52;20.30;1.00
37281;DHT22;23169;41.804;12.596;2023-05-16T12:16:21;19.70;1.00
37281;DHT22;23169;41.804;12.596;2023-05-16T12:18:51;19.00;1.00
37281;DHT22;23169;41.804;12.596;2023-05-16T12:21:20;18.80;1.00
37281;DHT22;23169;41.804;12.596;2023-05-16T12:23:49;18.60;1.00
37281;DHT22;23169;41.804;12.596;2023-05-16T12:26:28;18.30;1.00
37281;DHT22;23169;41.804;12.596;2023-05-16T12:28:59;18.30;1.00
37281;DHT22;23169;41.804;12.596;2023-05-16T12:31:35;18.00;1.00
37281;DHT22;23169;41.804;12.596;2023-05-16T12:34:04;17.90;2.10
37281;DHT22;23169;41.804;12.596;2023-05-16T12:36:33;17.90;3.40
37281;DHT22;23169;41.804;12.596;2023-05-16T12:39:03;18.00;4.60
37281;DHT22;23169;41.804;12.596;2023-05-16T12:44:18;18.30;1.00
37281;DHT22;23169;41.804;12.596;2023-05-16T12:46:51;18.40;3.10
37281;DHT22;23169;41.804;12.596;2023-05-16T12:49:20;18.50;4.00
37281;DHT22;23169;41.804;12.596;2023-05-16T12:51:52;18.50;3.30
37281;DHT22;23169;41.804;12.596;2023-05-16T12:54:21;18.00;5.90
37281;DHT22;23169;41.804;12.596;2023-05-16T12:56:50;17.80;7.20
37281;DHT22;23169;41.804;12.596;2023-05-16T12:59:18;17.60;8.50
37281;DHT22;23169;41.804;12.596;2023-05-16T13:01:47;17.50;9.30
37281;DHT22;23169;41.804;12.596;2023-05-16T13:04:16;17.50;9.60
37281;DHT22;23169;41.804;12.596;2023-05-16T13:06:46;17.40;11.30
37281;DHT22;23169;41.804;12.596;2023-05-16T13:09:15;17.40;11.00
37281;DHT22;23169;41.804;12.596;2023-05-16T13:11:44;17.20;11.20
37281;DHT22;23169;41.804;12.596;2023-05-16T13:14:13;17.10;11.80
37281;DHT22;23169;41.804;12.596;2023-05-16T13:16:42;16.80;8.50
37281;DHT22;23169;41.804;12.596;2023-05-16T13:19:12;16.80;9.70
37281;DHT22;23169;41.804;12.596;2023-05-16T13:21:40;16.80;7.50
37281;DHT22;23169;41.804;12.596;2023-05-16T13:24:09;16.80;18.00
37281;DHT22;23169;41.804;12.596;2023-05-16T13:26:38;17.00;8.40
37281;DHT22;23169;41.804;12.596;2023-05-16T13:29:06;17.00;8.80
37281;DHT22;23169;41.804;12.596;2023-05-16T13:31:37;17.00;9.00
37281;DHT22;23169;41.804;12.596;2023-05-16T13:34:06;17.20;8.40
37281;DHT22;23169;41.804;12.596;2023-05-16T13:36:35;17.20;8.80
37281;DHT22;23169;41.804;12.596;2023-05-16T13:39:04;17.30;9.50
37281;DHT22;23169;41.804;12.596;2023-05-16T13:41:33;17.50;10.10
37281;DHT22;23169;41.804;12.596;2023-05-16T13:44:05;17.60;11.00
37281;DHT22;23169;41.804;12.596;2023-05-16T13:46:35;17.60;20.50
37281;DHT22;23169;41.804;12.596;2023-05-16T13:49:03;17.70;12.50
37281;DHT22;23169;41.804;12.596;2023-05-16T13:51:33;17.50;12.00
37281;DHT22;23169;41.804;12.596;2023-05-16T13:54:01;17.70;12.00
37281;DHT22;23169;41.804;12.596;2023-05-16T13:56:30;17.90;11.90
37281;DHT22;23169;41.804;12.596;2023-05-16T13:58:59;18.00;9.80
37281;DHT22;23169;41.804;12.596;2023-05-16T14:01:27;17.80;8.30
37281;DHT22;23169;41.804;12.596;2023-05-16T14:03:56;17.80;8.50
37281;DHT22;23169;41.804;12.596;2023-05-16T14:06:25;17.90;8.50
37281;DHT22;23169;41.804;12.596;2023-05-16T14:08:54;17.90;8.30
37281;DHT22;23169;41.804;12.596;2023-05-16T14:11:23;17.90;8.70
37281;DHT22;23169;41.804;12.596;2023-05-16T14:13:55;17.80;6.60
37281;DHT22;23169;41.804;12.596;2023-05-16T14:16:23;17.80;7.90
37281;DHT22;23169;41.804;12.596;2023-05-16T14:18:52;17.80;6.20
37281;DHT22;23169;41.804;12.596;2023-05-16T14:21:21;17.60;5.20
37281;DHT22;23169;41.804;12.596;2023-05-16T14:23:49;17.50;6.70
37281;DHT22;23169;41.804;12.596;2023-05-16T14:26:21;17.30;8.50
37281;DHT22;23169;41.804;12.596;2023-05-16T14:28:52;17.30;9.10
37281;DHT22;23169;41.804;12.596;2023-05-16T14:31:20;17.20;10.60
37281;DHT22;23169;41.804;12.596;2023-05-16T14:33:49;17.20;11.30
37281;DHT22;23169;41.804;12.596;2023-05-16T14:36:18;17.10;11.40
37281;DHT22;23169;41.804;12.596;2023-05-16T14:38:47;17.10;12.00
37281;DHT22;23169;41.804;12.596;2023-05-16T14:41:16;17.10;12.30
37281;DHT22;23169;41.804;12.596;2023-05-16T14:43:46;17.00;12.00
37281;DHT22;23169;41.804;12.596;2023-05-16T14:46:14;17.10;11.40
37281;DHT22;23169;41.804;12.596;2023-05-16T14:48:44;17.10;9.50
37281;DHT22;23169;41.804;12.596;2023-05-16T14:51:12;17.20;10.00
37281;DHT22;23169;41.804;12.596;2023-05-16T14:53:42;17.30;10.70
37281;DHT22;23169;41.804;12.596;2023-05-16T14:56:11;17.30;9.80
37281;DHT22;23169;41.804;12.596;2023-05-16T14:58:39;17.40;10.10
37281;DHT22;23169;41.804;12.596;2023-05-16T15:01:08;17.40;11.60
37281;DHT22;23169;41.804;12.596;2023-05-16T15:03:37;17.40;11.00
37281;DHT22;23169;41.804;12.596;2023-05-16T15:06:07;17.40;9.70
37281;DHT22;23169;41.804;12.596;2023-05-16T15:08:37;17.40;9.30
37281;DHT22;23169;41.804;12.596;2023-05-16T15:11:06;17.10;14.10
37281;DHT22;23169;41.804;12.596;2023-05-16T15:13:36;17.50;8.80
37281;DHT22;23169;41.804;12.596;2023-05-16T15:16:06;17.50;10.10
37281;DHT22;23169;41.804;12.596;2023-05-16T15:18:36;17.30;10.10
37281;DHT22;23169;41.804;12.596;2023-05-16T15:21:04;17.30;10.60
37281;DHT22;23169;41.804;12.596;2023-05-16T15:23:34;17.20;10.00
37281;DHT22;23169;41.804;12.596;2023-05-16T15:26:03;17.10;10.50
37281;DHT22;23169;41.804;12.596;2023-05-16T15:28:33;17.10;10.20
37281;DHT22;23169;41.804;12.596;2023-05-16T15:31:02;17.20;10.80
37281;DHT22;23169;41.804;12.596;2023-05-16T15:33:33;17.20;10.70
37281;DHT22;23169;41.804;12.596;2023-05-16T15:38:31;17.20;4.20
37281;DHT22;23169;41.804;12.596;2023-05-16T15:41:00;17.20;11.80
37281;DHT22;23169;41.804;12.596;2023-05-16T15:43:34;17.20;12.40
37281;DHT22;23169;41.804;12.596;2023-05-16T15:46:05;17.20;12.90
37281;DHT22;23169;41.804;12.596;2023-05-16T15:48:37;17.20;12.40
37281;DHT22;23169;41.804;12.596;2023-05-16T15:51:12;17.20;13.00
37281;DHT22;23169;41.804;12.596;2023-05-16T15:53:41;17.10;13.90
37281;DHT22;23169;41.804;12.596;2023-05-16T15:56:09;16.90;14.30
37281;DHT22;23169;41.804;12.596;2023-05-16T15:58:38;17.10;14.20